createdAt,value
2023-01-11T00:00:27.797Z,6.60
2023-01-11T00:02:57.014Z,6.60
2023-01-11T00:05:24.452Z,6.60
2023-01-11T00:07:51.480Z,6.59
2023-01-11T00:10:19.197Z,6.58
2023-01-11T00:12:46.123Z,6.57
2023-01-11T00:15:13.788Z,6.55
2023-01-11T00:17:41.570Z,6.56
2023-01-11T00:20:10.578Z,6.58
2023-01-11T00:22:37.928Z,6.58
2023-01-11T00:25:05.255Z,6.57
2023-01-11T00:27:32.076Z,6.57
2023-01-11T00:29:58.927Z,6.57
2023-01-11T00:32:27.302Z,6.55
2023-01-11T00:34:54.553Z,6.56
2023-01-11T00:37:21.966Z,6.57
2023-01-11T00:39:48.977Z,6.56
2023-01-11T00:42:34.598Z,6.54
2023-01-11T00:45:19.871Z,6.53
2023-01-11T00:48:00.222Z,6.52
2023-01-11T00:50:33.310Z,6.50
2023-01-11T00:53:00.802Z,6.53
2023-01-11T00:55:27.824Z,6.50
2023-01-11T00:57:54.970Z,6.51
2023-01-11T01:00:22.095Z,6.50
2023-01-11T01:02:50.179Z,6.50
2023-01-11T01:05:17.801Z,6.48
2023-01-11T01:07:45.223Z,6.46
2023-01-11T01:10:14.984Z,6.45
2023-01-11T01:13:00.640Z,6.45
2023-01-11T01:15:28.243Z,6.45
2023-01-11T01:17:55.925Z,6.45
2023-01-11T01:20:24.047Z,6.43
2023-01-11T01:22:51.557Z,6.44
2023-01-11T01:25:19.140Z,6.44
2023-01-11T01:27:45.966Z,6.44
2023-01-11T01:30:13.188Z,6.44
2023-01-11T01:32:40.217Z,6.43
2023-01-11T01:35:07.269Z,6.43
2023-01-11T01:37:34.234Z,6.42
2023-01-11T01:40:01.087Z,6.43
2023-01-11T01:42:27.907Z,6.41
2023-01-11T01:44:58.600Z,6.42
2023-01-11T01:47:37.406Z,6.42
2023-01-11T01:50:19.000Z,6.40
2023-01-11T01:52:50.217Z,6.40
2023-01-11T01:55:23.683Z,6.40
2023-01-11T01:57:51.712Z,6.40
2023-01-11T02:00:18.819Z,6.39
2023-01-11T02:02:46.288Z,6.37
2023-01-11T02:05:15.282Z,6.37
2023-01-11T02:07:44.445Z,6.36
2023-01-11T02:10:15.941Z,6.40
2023-01-11T02:12:59.521Z,6.36
2023-01-11T02:15:27.056Z,6.38
2023-01-11T02:17:53.889Z,6.37
2023-01-11T02:20:51.728Z,6.35
2023-01-11T02:23:36.933Z,6.35
2023-01-11T02:26:52.456Z,6.34
2023-01-11T02:29:24.821Z,6.34
2023-01-11T02:32:02.463Z,6.35
2023-01-11T02:34:47.500Z,6.31
2023-01-11T02:37:43.399Z,6.30
2023-01-11T02:40:28.108Z,6.31
2023-01-11T02:43:26.091Z,6.31
2023-01-11T02:46:03.819Z,6.29
2023-01-11T02:49:04.296Z,6.30
2023-01-11T02:51:47.369Z,6.30
2023-01-11T02:54:17.352Z,6.31
2023-01-11T02:56:48.651Z,6.31
2023-01-11T02:59:22.793Z,6.30
2023-01-11T03:01:53.160Z,6.29
2023-01-11T03:04:29.933Z,6.28
2023-01-11T03:07:02.920Z,6.28
2023-01-11T03:09:32.451Z,6.28
2023-01-11T03:12:54.579Z,6.28
2023-01-11T03:15:24.466Z,6.25
2023-01-11T03:17:57.080Z,6.23
2023-01-11T03:20:42.259Z,6.24
2023-01-11T03:23:33.769Z,6.21
2023-01-11T03:26:14.268Z,6.25
2023-01-11T03:29:07.025Z,6.23
2023-01-11T03:31:52.107Z,6.24
2023-01-11T03:34:33.048Z,6.24
2023-01-11T03:37:06.065Z,6.22
2023-01-11T03:39:50.468Z,6.22
2023-01-11T03:42:20.775Z,6.21
2023-01-11T03:44:53.414Z,6.21
2023-01-11T03:47:23.892Z,6.19
2023-01-11T03:49:55.575Z,6.21
2023-01-11T03:52:27.899Z,6.17
2023-01-11T03:54:56.559Z,6.19
2023-01-11T03:57:32.933Z,6.17
2023-01-11T04:00:00.708Z,6.13
2023-01-11T04:02:34.190Z,6.16
2023-01-11T04:05:01.722Z,6.16
2023-01-11T04:07:28.777Z,6.14
2023-01-11T04:09:55.624Z,6.13
2023-01-11T04:12:22.360Z,6.11
2023-01-11T04:14:49.220Z,6.12
2023-01-11T04:17:16.004Z,6.11
2023-01-11T04:19:42.982Z,6.10
2023-01-11T04:22:09.755Z,6.10
2023-01-11T04:24:36.670Z,6.13
2023-01-11T04:27:03.530Z,6.07
2023-01-11T04:29:30.313Z,6.09
2023-01-11T04:31:57.574Z,6.08
2023-01-11T04:34:24.467Z,6.07
2023-01-11T04:36:51.274Z,6.09
2023-01-11T04:39:18.140Z,6.08
2023-01-11T04:42:03.369Z,6.06
2023-01-11T04:44:30.296Z,6.06
2023-01-11T04:46:57.052Z,6.08
2023-01-11T04:49:23.898Z,6.09
2023-01-11T04:51:50.775Z,6.10
2023-01-11T04:54:17.718Z,6.06
2023-01-11T04:56:44.577Z,6.08
2023-01-11T04:59:11.418Z,6.06
2023-01-11T05:01:38.247Z,6.04
2023-01-11T05:04:05.327Z,6.05
2023-01-11T05:06:32.309Z,6.05
2023-01-11T05:08:59.167Z,6.04
2023-01-11T05:11:25.978Z,6.04
2023-01-11T05:13:52.955Z,6.04
2023-01-11T05:16:24.410Z,6.04
2023-01-11T05:18:56.588Z,6.01
2023-01-11T05:21:28.921Z,5.99
2023-01-11T05:23:55.759Z,6.02
2023-01-11T05:26:25.099Z,6.00
2023-01-11T05:28:52.732Z,6.02
2023-01-11T05:31:19.828Z,6.00
2023-01-11T05:33:46.963Z,6.00
2023-01-11T05:36:18.269Z,5.99
2023-01-11T05:38:46.780Z,6.00
2023-01-11T05:41:14.405Z,5.99
2023-01-11T05:44:02.541Z,5.99
2023-01-11T05:46:29.744Z,5.99
2023-01-11T05:48:56.787Z,5.98
2023-01-11T05:51:23.651Z,5.98
2023-01-11T05:53:50.459Z,5.99
2023-01-11T05:56:17.250Z,5.97
2023-01-11T05:58:47.193Z,5.97
2023-01-11T06:01:14.271Z,5.97
2023-01-11T06:03:41.451Z,5.98
2023-01-11T06:06:08.573Z,5.96
2023-01-11T06:08:35.639Z,5.97
2023-01-11T06:11:02.483Z,5.97
2023-01-11T06:13:29.456Z,5.97
2023-01-11T06:15:59.801Z,5.97
2023-01-11T06:18:31.369Z,5.95
2023-01-11T06:20:58.855Z,5.94
2023-01-11T06:23:27.036Z,5.93
2023-01-11T06:25:53.868Z,5.94
2023-01-11T06:28:20.806Z,5.93
2023-01-11T06:30:55.397Z,5.94
2023-01-11T06:33:24.040Z,5.92
2023-01-11T06:35:51.338Z,5.93
2023-01-11T06:38:19.979Z,5.95
2023-01-11T06:40:58.149Z,5.94
2023-01-11T06:43:26.148Z,5.93
2023-01-11T06:45:53.267Z,5.91
2023-01-11T06:48:21.507Z,5.92
2023-01-11T06:50:49.878Z,5.93
2023-01-11T06:53:16.855Z,5.92
2023-01-11T06:55:43.868Z,5.92
2023-01-11T06:58:10.947Z,5.90
2023-01-11T07:00:38.559Z,5.89
2023-01-11T07:03:06.999Z,5.90
2023-01-11T07:05:35.326Z,5.87
2023-01-11T07:08:02.851Z,5.91
2023-01-11T07:10:29.703Z,5.89
2023-01-11T07:12:56.671Z,5.89
2023-01-11T07:15:23.483Z,5.86
2023-01-11T07:17:59.989Z,5.87
2023-01-11T07:20:27.607Z,5.85
2023-01-11T07:23:00.927Z,5.87
2023-01-11T07:25:29.096Z,5.86
2023-01-11T07:28:04.543Z,5.85
2023-01-11T07:30:44.555Z,5.86
2023-01-11T07:33:19.024Z,5.84
2023-01-11T07:35:48.647Z,5.85
2023-01-11T07:38:15.559Z,5.85
2023-01-11T07:40:42.583Z,5.85
2023-01-11T07:43:14.604Z,5.85
2023-01-11T07:45:49.682Z,5.87
2023-01-11T07:48:25.272Z,5.86
2023-01-11T07:50:53.182Z,5.85
2023-01-11T07:53:20.605Z,5.87
2023-01-11T07:55:47.715Z,5.86
2023-01-11T07:58:14.779Z,5.85
2023-01-11T08:00:41.977Z,5.85
2023-01-11T08:03:09.403Z,5.86
2023-01-11T08:05:36.511Z,5.83
2023-01-11T08:08:04.204Z,5.76
2023-01-11T08:10:31.407Z,5.81
2023-01-11T08:13:17.310Z,5.85
2023-01-11T08:15:44.374Z,5.85
2023-01-11T08:18:12.169Z,5.84
2023-01-11T08:20:40.610Z,5.85
2023-01-11T08:23:09.591Z,5.84
2023-01-11T08:25:36.841Z,5.83
2023-01-11T08:28:05.873Z,5.82
2023-01-11T08:30:33.271Z,5.87
2023-01-11T08:33:06.663Z,5.87
2023-01-11T08:35:39.026Z,5.82
2023-01-11T08:38:06.148Z,5.86
2023-01-11T08:40:32.909Z,5.83
2023-01-11T08:42:59.832Z,5.82
2023-01-11T08:45:27.065Z,5.82
2023-01-11T08:47:54.919Z,5.81
2023-01-11T08:50:22.546Z,5.81
2023-01-11T08:52:51.331Z,5.77
2023-01-11T08:55:19.314Z,5.78
2023-01-11T08:57:46.258Z,5.80
2023-01-11T09:00:13.527Z,5.78
2023-01-11T09:02:40.693Z,5.78
2023-01-11T09:05:07.936Z,5.76
2023-01-11T09:07:34.784Z,5.78
2023-01-11T09:10:01.625Z,5.75
2023-01-11T09:12:28.734Z,5.70
2023-01-11T09:14:55.535Z,5.76
2023-01-11T09:17:22.338Z,5.79
2023-01-11T09:19:49.203Z,5.80
2023-01-11T09:22:16.299Z,5.78
2023-01-11T09:24:43.032Z,5.77
2023-01-11T09:27:11.814Z,5.74
2023-01-11T09:29:38.892Z,5.72
2023-01-11T09:32:06.381Z,5.76
2023-01-11T09:34:33.383Z,5.75
2023-01-11T09:37:02.706Z,5.77
2023-01-11T09:39:29.808Z,5.79
2023-01-11T09:42:22.639Z,5.77
2023-01-11T09:44:56.707Z,5.76
2023-01-11T09:47:45.192Z,5.79
2023-01-11T09:50:17.617Z,5.81
2023-01-11T09:52:51.317Z,5.82
2023-01-11T09:55:25.182Z,5.83
2023-01-11T09:58:02.341Z,5.78
2023-01-11T10:00:56.706Z,5.81
2023-01-11T10:03:38.785Z,5.82
2023-01-11T10:06:20.009Z,5.81
2023-01-11T10:18:28.853Z,5.83
2023-01-11T10:18:30.454Z,5.83
2023-01-11T10:20:40.914Z,5.85
2023-01-11T10:23:15.019Z,5.86
2023-01-11T10:25:51.601Z,5.84
2023-01-11T10:28:39.712Z,5.85
2023-01-11T10:31:43.942Z,5.86
2023-01-11T10:34:41.479Z,5.87
2023-01-11T10:37:35.428Z,5.89
2023-01-11T10:40:30.463Z,5.86
2023-01-11T10:43:03.852Z,5.91
2023-01-11T10:45:59.614Z,5.92
2023-01-11T10:48:33.338Z,5.90
2023-01-11T10:51:25.384Z,5.87
2023-01-11T10:57:02.535Z,5.93
2023-01-11T10:59:59.165Z,5.91
2023-01-11T11:02:43.356Z,5.94
2023-01-11T11:05:23.061Z,5.91
2023-01-11T11:07:55.428Z,5.92
2023-01-11T11:10:51.170Z,5.91
2023-01-11T11:13:20.864Z,5.90
2023-01-11T11:16:05.732Z,5.90
2023-01-11T11:18:32.787Z,5.90
2023-01-11T11:21:07.005Z,5.89
2023-01-11T11:23:36.376Z,5.89
2023-01-11T11:26:05.961Z,5.89
2023-01-11T11:28:33.565Z,5.90
2023-01-11T11:31:07.508Z,5.91
2023-01-11T11:33:39.283Z,5.90
2023-01-11T11:36:08.901Z,5.89
2023-01-11T11:38:38.512Z,5.89
2023-01-11T11:41:12.238Z,5.91
2023-01-11T11:43:41.436Z,5.90
2023-01-11T11:46:18.780Z,5.92
2023-01-11T11:49:08.616Z,5.91
2023-01-11T11:51:35.965Z,5.94
2023-01-11T11:54:03.278Z,5.91
2023-01-11T11:56:32.952Z,5.95
2023-01-11T11:59:06.883Z,5.94
2023-01-11T12:01:40.008Z,5.95
2023-01-11T12:04:20.387Z,5.96
2023-01-11T12:07:05.907Z,5.93
2023-01-11T12:09:34.437Z,5.95
2023-01-11T12:12:01.928Z,5.94
2023-01-11T12:14:35.309Z,5.94
2023-01-11T12:17:24.532Z,5.95
2023-01-11T12:19:51.793Z,5.97
2023-01-11T12:22:19.987Z,5.97
2023-01-11T12:24:48.809Z,5.98
2023-01-11T12:27:32.887Z,5.95
2023-01-11T12:30:36.761Z,5.97
2023-01-11T12:33:21.601Z,5.98
2023-01-11T12:35:48.448Z,5.96
2023-01-11T12:38:17.985Z,5.97
2023-01-11T12:41:20.355Z,5.97
2023-01-11T12:44:02.797Z,5.97
2023-01-11T12:46:58.855Z,6.01
2023-01-11T12:49:37.730Z,5.97
2023-01-11T12:52:27.666Z,5.99
2023-01-11T12:55:20.791Z,5.98
2023-01-11T12:58:01.632Z,5.96
2023-01-11T13:00:53.174Z,5.99
2023-01-11T13:03:37.898Z,5.98
2023-01-11T13:06:10.606Z,6.00
2023-01-11T13:08:46.706Z,6.00
2023-01-11T13:11:35.292Z,6.00
2023-01-11T13:14:22.370Z,6.02
2023-01-11T13:16:57.037Z,6.02
2023-01-11T13:19:27.807Z,6.04
2023-01-11T13:21:56.490Z,6.04
2023-01-11T13:24:28.225Z,6.06
2023-01-11T13:27:00.043Z,6.04
2023-01-11T13:29:39.347Z,6.02
2023-01-11T13:32:12.136Z,6.06
2023-01-11T13:34:42.885Z,6.05
2023-01-11T13:37:19.910Z,6.06
2023-01-11T13:40:01.481Z,6.10
2023-01-11T13:42:36.561Z,6.06
2023-01-11T13:45:06.159Z,6.07
2023-01-11T13:47:36.036Z,6.07
2023-01-11T13:50:28.009Z,6.08
2023-01-11T13:52:57.421Z,6.08
2023-01-11T13:55:38.026Z,6.08
2023-01-11T13:58:10.181Z,6.08
2023-01-11T14:00:45.830Z,6.09
2023-01-11T14:03:26.941Z,6.09
2023-01-11T14:05:56.807Z,6.11
2023-01-11T14:09:01.823Z,6.11
2023-01-11T14:11:33.746Z,6.10
2023-01-11T14:14:37.762Z,6.10
2023-01-11T14:17:25.659Z,6.11
2023-01-11T14:20:17.407Z,6.09
2023-01-11T14:22:46.944Z,6.08
2023-01-11T14:25:32.541Z,6.08
2023-01-11T14:27:59.349Z,6.07
2023-01-11T14:30:55.578Z,6.08
2023-01-11T14:33:28.387Z,6.07
2023-01-11T14:36:32.394Z,6.06
2023-01-11T14:39:25.246Z,6.07
2023-01-11T14:42:19.007Z,6.09
2023-01-11T14:45:14.433Z,6.07
2023-01-11T14:47:56.322Z,6.07
2023-01-11T14:51:06.835Z,6.04
2023-01-11T14:53:39.732Z,6.02
2023-01-11T14:56:41.743Z,6.01
2023-01-11T14:59:40.901Z,6.02
2023-01-11T15:02:15.358Z,6.04
2023-01-11T15:04:56.990Z,6.05
2023-01-11T15:07:29.923Z,6.02
2023-01-11T15:09:58.877Z,6.04
2023-01-11T15:12:34.260Z,6.01
2023-01-11T15:15:22.602Z,6.00
2023-01-11T15:18:29.755Z,6.01
2023-01-11T15:21:06.343Z,5.98
2023-01-11T15:23:37.480Z,5.98
2023-01-11T15:26:07.955Z,5.98
2023-01-11T15:28:47.810Z,5.97
2023-01-11T15:31:56.951Z,5.95
2023-01-11T15:34:32.419Z,5.97
2023-01-11T15:37:06.433Z,5.97
2023-01-11T15:40:13.541Z,5.97
2023-01-11T15:42:43.489Z,5.95
2023-01-11T15:45:13.132Z,5.97
2023-01-11T15:48:01.056Z,5.94
2023-01-11T15:50:42.758Z,5.95
2023-01-11T15:53:15.243Z,5.95
2023-01-11T15:56:03.349Z,5.94
2023-01-11T15:58:48.920Z,5.94
2023-01-11T16:01:58.729Z,5.87
2023-01-11T16:04:30.730Z,5.91
2023-01-11T16:07:02.067Z,5.92
2023-01-11T16:10:09.905Z,5.91
2023-01-11T16:12:51.872Z,5.90
2023-01-11T16:15:38.290Z,5.86
2023-01-11T16:18:19.680Z,5.85
2023-01-11T16:21:02.030Z,5.84
2023-01-11T16:23:31.805Z,5.87
2023-01-11T16:25:59.643Z,5.83
2023-01-11T16:28:27.821Z,5.87
2023-01-11T16:31:00.727Z,5.84
2023-01-11T16:33:30.069Z,5.83
2023-01-11T16:36:04.507Z,5.83
2023-01-11T16:38:33.868Z,5.81
2023-01-11T16:41:01.291Z,5.82
2023-01-11T16:43:31.171Z,5.80
2023-01-11T16:45:58.445Z,5.81
2023-01-11T16:48:28.137Z,5.80
2023-01-11T16:51:09.126Z,5.79
2023-01-11T16:53:41.059Z,5.77
2023-01-11T16:56:15.062Z,5.75
2023-01-11T16:58:43.381Z,5.77
2023-01-11T17:01:12.644Z,5.75
2023-01-11T17:03:50.087Z,5.70
2023-01-11T17:06:22.366Z,5.68
2023-01-11T17:08:52.553Z,5.71
2023-01-11T17:11:19.454Z,5.70
2023-01-11T17:13:55.207Z,5.71
2023-01-11T17:16:27.634Z,5.68
2023-01-11T17:18:55.171Z,5.67
2023-01-11T17:21:24.519Z,5.67
2023-01-11T17:23:54.584Z,5.67
2023-01-11T17:26:24.855Z,5.65
2023-01-11T17:28:57.279Z,5.66
2023-01-11T17:31:32.002Z,5.66
2023-01-11T17:34:08.361Z,5.64
2023-01-11T17:36:36.456Z,5.64
2023-01-11T17:39:04.574Z,5.35
2023-01-11T17:41:51.091Z,5.49
2023-01-11T17:44:41.897Z,5.55
2023-01-11T17:47:12.081Z,5.61
2023-01-11T17:49:39.503Z,5.60
2023-01-11T17:52:43.855Z,5.61
2023-01-11T17:55:25.390Z,5.59
2023-01-11T17:58:16.696Z,5.60
2023-01-11T18:01:07.773Z,5.59
2023-01-11T18:03:48.461Z,5.60
2023-01-11T18:06:23.300Z,5.59
2023-01-11T18:08:55.861Z,5.57
2023-01-11T18:11:37.866Z,5.59
2023-01-11T18:14:07.320Z,5.63
2023-01-11T18:16:34.768Z,5.64
2023-01-11T18:19:21.580Z,5.61
2023-01-11T18:21:53.887Z,5.61
2023-01-11T18:24:33.315Z,5.56
2023-01-11T18:27:19.177Z,5.53
2023-01-11T18:29:47.691Z,5.56
2023-01-11T18:32:15.460Z,5.59
2023-01-11T18:34:45.946Z,5.55
2023-01-11T18:37:13.367Z,5.53
2023-01-11T18:39:40.528Z,5.52
2023-01-11T18:42:07.387Z,5.52
2023-01-11T18:44:39.588Z,5.51
2023-01-11T18:47:25.243Z,5.50
2023-01-11T18:49:53.322Z,5.51
2023-01-11T18:52:21.951Z,5.50
2023-01-11T18:54:48.945Z,5.53
2023-01-11T18:57:15.840Z,5.54
2023-01-11T18:59:42.765Z,5.52
2023-01-11T19:02:31.475Z,5.52
2023-01-11T19:04:58.420Z,5.50
2023-01-11T19:07:26.435Z,5.51
2023-01-11T19:09:56.492Z,5.52
2023-01-11T19:12:23.781Z,5.53
2023-01-11T19:14:50.680Z,5.53
2023-01-11T20:07:36.074Z,5.56
2023-01-11T20:10:03.226Z,5.57
2023-01-11T20:12:30.245Z,5.56
2023-01-11T20:15:01.136Z,5.55
2023-01-11T20:17:28.590Z,5.54
2023-01-11T20:19:55.574Z,5.53
2023-01-11T20:22:26.271Z,5.53
2023-01-11T20:24:53.252Z,5.53
2023-01-11T20:27:20.216Z,5.52
2023-01-11T20:29:47.926Z,5.54
2023-01-11T20:32:39.222Z,5.53
2023-01-11T20:35:03.351Z,5.53
2023-01-11T20:37:30.564Z,5.52
2023-01-11T20:39:57.476Z,5.50
2023-01-11T20:42:24.337Z,5.51
2023-01-11T20:44:51.357Z,5.49
2023-01-11T20:47:18.940Z,5.50
2023-01-11T20:49:45.980Z,5.51
2023-01-11T20:52:12.882Z,5.49
2023-01-11T20:54:39.909Z,5.47
2023-01-11T20:57:12.328Z,5.46
2023-01-11T20:59:39.403Z,5.47
2023-01-11T21:02:07.655Z,5.48
2023-01-11T21:04:35.782Z,5.48
2023-01-11T21:07:02.772Z,5.48
2023-01-11T21:09:29.914Z,5.49
2023-01-11T21:11:56.722Z,5.47
2023-01-11T21:14:23.808Z,5.48
2023-01-11T21:16:50.854Z,5.45
2023-01-11T21:19:17.847Z,5.47
2023-01-11T21:21:44.846Z,5.45
2023-01-11T21:24:14.313Z,5.45
2023-01-11T21:26:42.666Z,5.43
2023-01-11T21:29:11.713Z,5.45
2023-01-11T21:31:39.696Z,5.43
2023-01-11T21:34:07.231Z,5.41
2023-01-11T21:36:34.565Z,5.41
2023-01-11T21:39:02.736Z,5.41
2023-01-11T21:41:52.403Z,5.41
2023-01-11T21:44:20.323Z,5.42
2023-01-11T21:46:47.543Z,5.45
2023-01-11T21:49:15.285Z,5.40
2023-01-11T21:51:42.739Z,5.41
2023-01-11T21:54:12.795Z,5.39
2023-01-11T21:56:41.817Z,5.37
2023-01-11T21:59:08.880Z,5.39
2023-01-11T22:01:36.326Z,5.38
2023-01-11T22:04:07.309Z,5.36
2023-01-11T22:06:38.608Z,5.36
2023-01-11T22:09:06.648Z,5.35
2023-01-11T22:11:33.638Z,5.32
2023-01-11T22:14:04.984Z,5.35
2023-01-11T22:16:33.017Z,5.32
2023-01-11T22:19:00.347Z,5.31
2023-01-11T22:21:28.005Z,5.30
2023-01-11T22:23:56.783Z,5.32
2023-01-11T22:26:24.781Z,5.28
2023-01-11T22:29:14.189Z,5.33
2023-01-11T22:31:54.819Z,5.32
2023-01-11T22:34:22.634Z,5.27
2023-01-11T22:36:50.080Z,5.28
2023-01-11T22:39:19.681Z,5.28
2023-01-11T22:41:48.468Z,5.28
2023-01-11T22:44:15.941Z,5.30
2023-01-11T22:46:44.049Z,5.28
2023-01-11T22:49:11.730Z,5.28
2023-01-11T22:51:39.495Z,5.30
2023-01-11T22:54:06.506Z,5.26
2023-01-11T22:56:33.759Z,5.25
2023-01-11T22:59:00.737Z,5.25
2023-01-11T23:01:28.974Z,5.23
2023-01-11T23:03:56.574Z,5.23
2023-01-11T23:06:26.485Z,5.24
2023-01-11T23:08:54.590Z,5.27
2023-01-11T23:11:46.047Z,5.28
2023-01-11T23:14:18.460Z,5.24
2023-01-11T23:16:46.984Z,5.26
2023-01-11T23:19:16.716Z,5.26
2023-01-11T23:21:45.151Z,5.26
2023-01-11T23:24:13.342Z,5.27
2023-01-11T23:26:40.538Z,5.24
2023-01-11T23:29:07.475Z,5.22
2023-01-11T23:31:35.272Z,5.22
2023-01-11T23:34:03.435Z,5.21
2023-01-11T23:36:32.730Z,5.21
2023-01-11T23:39:00.081Z,5.22
2023-01-11T23:41:46.020Z,5.21
2023-01-11T23:44:14.774Z,5.22
2023-01-11T23:47:00.578Z,5.22
2023-01-11T23:49:28.831Z,5.22
2023-01-11T23:51:56.339Z,5.23
2023-01-11T23:54:26.117Z,5.30
2023-01-11T23:56:52.988Z,5.27
2023-01-11T23:59:19.990Z,5.27
